createdAt,value
2022-10-07T00:01:03.261Z,6.80
2022-10-07T00:03:30.094Z,6.80
2022-10-07T00:06:18.928Z,6.80
2022-10-07T00:08:48.443Z,6.80
2022-10-07T00:11:25.022Z,6.80
2022-10-07T00:13:55.277Z,6.70
2022-10-07T00:16:29.093Z,6.80
2022-10-07T00:18:58.838Z,6.70
2022-10-07T00:21:28.436Z,6.70
2022-10-07T00:23:55.441Z,6.60
2022-10-07T00:26:24.728Z,6.60
2022-10-07T00:28:52.033Z,6.60
2022-10-07T00:31:22.259Z,6.70
2022-10-07T00:33:50.361Z,6.60
2022-10-07T00:36:23.482Z,6.60
2022-10-07T00:38:52.073Z,6.60
2022-10-07T00:41:21.299Z,6.60
2022-10-07T00:43:48.643Z,6.60
2022-10-07T00:46:45.025Z,7.90
2022-10-07T00:49:14.644Z,6.50
2022-10-07T00:51:43.462Z,6.40
2022-10-07T00:54:16.572Z,6.40
2022-10-07T00:56:44.556Z,6.40
2022-10-07T00:59:14.471Z,6.30
2022-10-07T01:01:42.363Z,6.30
2022-10-07T01:04:13.808Z,6.30
2022-10-07T01:06:41.046Z,6.20
2022-10-07T01:09:09.629Z,6.20
2022-10-07T01:11:36.684Z,6.20
2022-10-07T01:14:03.653Z,6.20
2022-10-07T01:16:49.044Z,6.10
2022-10-07T01:19:40.837Z,6.10
2022-10-07T01:22:29.659Z,6.10
2022-10-07T01:25:25.067Z,6.10
2022-10-07T01:28:05.319Z,6.00
2022-10-07T01:30:36.302Z,6.00
2022-10-07T01:33:06.645Z,6.00
2022-10-07T01:35:36.972Z,6.00
2022-10-07T01:38:06.950Z,6.00
2022-10-07T01:40:47.816Z,5.90
2022-10-07T01:43:21.539Z,5.90
2022-10-07T01:45:50.553Z,5.90
2022-10-07T01:48:17.858Z,5.90
2022-10-07T01:50:44.857Z,5.90
2022-10-07T01:53:23.734Z,5.90
2022-10-07T01:56:14.111Z,5.90
2022-10-07T01:58:44.822Z,5.90
2022-10-07T02:01:40.730Z,5.80
2022-10-07T02:04:26.303Z,5.80
2022-10-07T02:07:17.628Z,5.80
2022-10-07T02:09:59.748Z,5.70
2022-10-07T02:12:32.043Z,5.60
2022-10-07T02:15:26.850Z,5.60
2022-10-07T02:17:58.416Z,5.60
2022-10-07T02:20:32.342Z,5.60
2022-10-07T02:23:02.582Z,5.60
2022-10-07T02:25:35.019Z,5.50
2022-10-07T02:28:05.918Z,5.50
2022-10-07T02:30:34.722Z,5.60
2022-10-07T02:33:05.516Z,5.60
2022-10-07T02:35:47.358Z,5.60
2022-10-07T02:38:17.065Z,5.50
2022-10-07T02:40:45.862Z,5.60
2022-10-07T02:43:24.454Z,5.50
2022-10-07T02:46:18.419Z,5.50
2022-10-07T02:48:51.986Z,5.40
2022-10-07T02:51:24.051Z,5.30
2022-10-07T02:53:52.392Z,5.30
2022-10-07T02:56:22.710Z,5.30
2022-10-07T02:58:53.859Z,5.20
2022-10-07T03:01:26.668Z,5.10
2022-10-07T03:03:54.651Z,5.00
2022-10-07T03:06:24.045Z,5.00
2022-10-07T03:08:52.885Z,5.00
2022-10-07T03:11:19.906Z,5.00
2022-10-07T03:13:46.832Z,5.00
2022-10-07T03:16:13.852Z,5.10
2022-10-07T03:18:41.629Z,5.00
2022-10-07T03:21:09.037Z,5.10
2022-10-07T03:23:36.098Z,5.10
2022-10-07T03:26:03.269Z,5.10
2022-10-07T03:28:33.100Z,5.10
2022-10-07T03:31:12.046Z,5.10
2022-10-07T03:33:39.188Z,5.10
2022-10-07T03:36:08.499Z,5.10
2022-10-07T03:38:35.460Z,5.10
2022-10-07T03:41:04.694Z,5.10
2022-10-07T03:43:32.623Z,5.10
2022-10-07T03:46:02.705Z,5.10
2022-10-07T03:48:30.586Z,5.10
2022-10-07T03:51:00.871Z,5.10
2022-10-07T03:53:29.482Z,5.10
2022-10-07T03:55:56.894Z,5.10
2022-10-07T03:58:23.985Z,5.20
2022-10-07T04:00:50.962Z,5.20
2022-10-07T04:03:18.657Z,5.30
2022-10-07T04:05:57.616Z,5.20
2022-10-07T04:08:27.875Z,5.10
2022-10-07T04:10:55.047Z,5.20
2022-10-07T04:13:21.674Z,5.10
2022-10-07T04:15:49.515Z,5.20
2022-10-07T04:18:17.015Z,5.20
2022-10-07T04:20:43.732Z,5.20
2022-10-07T04:23:10.702Z,5.20
2022-10-07T04:25:38.478Z,5.20
2022-10-07T04:28:08.301Z,5.20
2022-10-07T04:30:40.078Z,5.30
2022-10-07T04:33:08.380Z,5.30
2022-10-07T04:35:38.773Z,5.30
2022-10-07T04:38:09.004Z,5.30
2022-10-07T04:40:40.233Z,5.30
2022-10-07T04:43:19.288Z,5.40
2022-10-07T04:45:54.907Z,5.30
2022-10-07T04:48:23.471Z,5.30
2022-10-07T04:50:52.554Z,5.40
2022-10-07T04:53:19.881Z,5.30
2022-10-07T04:55:49.884Z,5.40
2022-10-07T04:58:18.012Z,5.50
2022-10-07T05:00:50.960Z,5.50
2022-10-07T05:03:19.575Z,5.50
2022-10-07T05:05:50.883Z,5.50
2022-10-07T05:08:20.381Z,5.50
2022-10-07T05:10:48.083Z,5.50
2022-10-07T05:13:16.853Z,5.60
2022-10-07T05:15:55.703Z,5.50
2022-10-07T05:18:23.737Z,5.50
2022-10-07T05:20:51.466Z,5.50
2022-10-07T05:23:25.637Z,5.50
2022-10-07T05:26:04.904Z,5.60
2022-10-07T05:28:31.685Z,5.60
2022-10-07T05:31:07.686Z,5.60
2022-10-07T05:33:35.191Z,5.60
2022-10-07T05:36:02.960Z,5.60
2022-10-07T05:38:29.990Z,5.60
2022-10-07T05:41:07.250Z,5.60
2022-10-07T05:43:36.866Z,5.70
2022-10-07T05:46:06.596Z,5.70
2022-10-07T05:51:15.777Z,5.70
2022-10-07T05:53:43.362Z,5.80
2022-10-07T05:56:12.519Z,5.80
2022-10-07T05:58:39.600Z,5.90
2022-10-07T06:01:12.948Z,5.90
2022-10-07T06:03:41.591Z,6.00
2022-10-07T06:06:08.863Z,6.00
2022-10-07T06:08:36.266Z,6.20
2022-10-07T06:11:22.931Z,6.30
2022-10-07T06:13:51.057Z,6.60
2022-10-07T06:16:17.716Z,7.20
2022-10-07T06:18:44.796Z,7.60
2022-10-07T06:21:12.866Z,8.10
2022-10-07T06:23:39.415Z,8.60
2022-10-07T06:26:08.208Z,9.00
2022-10-07T06:28:37.514Z,9.20
2022-10-07T06:31:06.317Z,9.10
2022-10-07T06:33:34.113Z,9.00
2022-10-07T06:36:04.972Z,8.90
2022-10-07T06:38:32.601Z,8.70
2022-10-07T06:41:00.272Z,8.60
2022-10-07T06:43:28.240Z,8.40
2022-10-07T06:45:59.833Z,8.30
2022-10-07T06:48:27.166Z,8.20
2022-10-07T06:50:55.391Z,8.10
2022-10-07T06:53:22.922Z,8.10
2022-10-07T06:55:54.492Z,8.10
2022-10-07T06:58:22.367Z,8.20
2022-10-07T07:00:51.393Z,8.30
2022-10-07T07:03:18.967Z,8.40
2022-10-07T07:05:47.836Z,8.50
2022-10-07T07:08:19.270Z,8.60
2022-10-07T07:10:46.972Z,8.60
2022-10-07T07:13:14.347Z,8.70
2022-10-07T07:15:41.754Z,8.70
2022-10-07T07:18:10.550Z,8.80
2022-10-07T07:20:38.354Z,8.90
2022-10-07T07:23:07.749Z,9.00
2022-10-07T07:25:39.879Z,9.00
2022-10-07T07:28:08.098Z,9.10
2022-10-07T07:30:37.443Z,9.20
2022-10-07T07:33:05.642Z,9.30
2022-10-07T07:35:36.355Z,9.40
2022-10-07T07:38:03.450Z,9.50
2022-10-07T07:40:30.385Z,9.60
2022-10-07T07:42:57.318Z,9.70
2022-10-07T07:45:24.851Z,9.80
2022-10-07T07:47:51.596Z,9.90
2022-10-07T07:50:21.127Z,10.00
2022-10-07T07:52:47.951Z,10.00
2022-10-07T07:55:15.395Z,10.10
2022-10-07T07:57:42.960Z,10.20
2022-10-07T08:00:11.603Z,10.30
2022-10-07T08:02:38.228Z,10.50
2022-10-07T08:05:05.427Z,10.60
2022-10-07T08:07:33.411Z,10.70
2022-10-07T08:09:59.930Z,10.80
2022-10-07T08:12:26.941Z,10.90
2022-10-07T08:14:53.516Z,10.90
2022-10-07T08:17:20.503Z,11.00
2022-10-07T08:19:47.017Z,11.10
2022-10-07T08:22:17.953Z,11.20
2022-10-07T08:24:46.192Z,11.30
2022-10-07T08:27:13.087Z,11.30
2022-10-07T08:29:40.056Z,11.40
2022-10-07T08:32:07.047Z,11.50
2022-10-07T08:34:33.627Z,11.60
2022-10-07T08:37:00.581Z,11.60
2022-10-07T08:39:29.759Z,11.70
2022-10-07T08:42:15.048Z,11.80
2022-10-07T08:44:48.739Z,11.80
2022-10-07T08:47:44.409Z,11.90
2022-10-07T08:50:23.600Z,12.00
2022-10-07T08:53:08.749Z,12.10
2022-10-07T08:55:47.626Z,12.20
2022-10-07T08:58:52.641Z,12.30
2022-10-07T09:01:36.399Z,12.30
2022-10-07T09:04:25.053Z,12.40
2022-10-07T09:07:05.026Z,12.50
2022-10-07T09:09:42.683Z,12.50
2022-10-07T09:12:16.985Z,12.60
2022-10-07T09:14:46.928Z,12.80
2022-10-07T09:17:30.509Z,12.90
2022-10-07T09:20:22.685Z,12.90
2022-10-07T09:22:57.377Z,13.00
2022-10-07T09:25:27.266Z,13.10
2022-10-07T09:27:54.499Z,13.10
2022-10-07T09:30:23.290Z,13.20
2022-10-07T09:32:54.679Z,13.30
2022-10-07T09:35:27.396Z,13.40
2022-10-07T09:37:55.717Z,13.40
2022-10-07T09:40:34.916Z,13.50
2022-10-07T09:43:10.437Z,13.60
2022-10-07T09:45:38.160Z,13.70
2022-10-07T09:48:16.911Z,13.80
2022-10-07T09:50:45.123Z,13.80
2022-10-07T09:53:22.721Z,13.90
2022-10-07T09:55:51.286Z,13.90
2022-10-07T09:58:27.598Z,14.00
2022-10-07T10:00:57.390Z,14.10
2022-10-07T10:03:36.692Z,14.10
2022-10-07T10:06:06.090Z,14.20
2022-10-07T10:08:39.103Z,14.20
2022-10-07T10:11:17.854Z,14.30
2022-10-07T10:13:44.950Z,14.40
2022-10-07T10:16:37.417Z,14.40
2022-10-07T10:19:26.088Z,14.50
2022-10-07T10:21:58.121Z,14.60
2022-10-07T10:24:47.747Z,14.60
2022-10-07T10:27:22.844Z,14.70
2022-10-07T10:29:57.598Z,14.70
2022-10-07T10:33:04.887Z,14.80
2022-10-07T10:35:34.863Z,14.90
2022-10-07T10:38:33.968Z,14.90
2022-10-07T10:41:12.946Z,14.90
2022-10-07T10:43:48.306Z,14.90
2022-10-07T10:46:47.370Z,15.00
2022-10-07T10:49:34.518Z,15.10
2022-10-07T10:52:19.556Z,15.10
2022-10-07T10:55:05.414Z,15.10
2022-10-07T10:58:10.173Z,15.10
2022-10-07T11:01:25.232Z,15.10
2022-10-07T11:04:12.789Z,15.10
2022-10-07T11:06:43.289Z,15.20
2022-10-07T11:09:20.332Z,15.10
2022-10-07T11:11:46.953Z,15.20
2022-10-07T11:14:22.979Z,15.20
2022-10-07T11:17:03.122Z,15.20
2022-10-07T11:19:40.515Z,15.30
2022-10-07T11:22:17.322Z,15.30
2022-10-07T11:24:51.512Z,15.40
2022-10-07T11:27:27.509Z,15.40
2022-10-07T11:30:07.983Z,15.50
2022-10-07T11:32:57.520Z,15.50
2022-10-07T11:35:24.017Z,15.60
2022-10-07T11:38:00.437Z,15.60
2022-10-07T11:40:30.981Z,15.60
2022-10-07T11:43:07.402Z,15.60
2022-10-07T11:45:44.552Z,15.60
2022-10-07T11:48:18.850Z,15.60
2022-10-07T11:51:02.619Z,15.70
2022-10-07T11:53:34.716Z,15.70
2022-10-07T11:56:05.768Z,15.80
2022-10-07T11:58:39.155Z,15.80
2022-10-07T12:01:29.250Z,15.90
2022-10-07T12:04:00.132Z,15.90
2022-10-07T12:06:27.607Z,15.80
2022-10-07T12:08:54.468Z,15.80
2022-10-07T12:11:24.951Z,15.80
2022-10-07T12:13:53.807Z,15.80
2022-10-07T12:16:32.416Z,15.80
2022-10-07T12:19:07.923Z,15.80
2022-10-07T12:22:00.049Z,15.70
2022-10-07T12:24:27.787Z,15.70
2022-10-07T12:27:07.157Z,15.70
2022-10-07T12:29:48.550Z,15.70
2022-10-07T12:33:00.687Z,15.80
2022-10-07T12:35:33.736Z,15.90
2022-10-07T12:38:25.971Z,16.00
2022-10-07T12:41:03.277Z,16.00
2022-10-07T12:43:42.370Z,16.10
2022-10-07T12:46:18.482Z,16.10
2022-10-07T12:49:14.354Z,16.20
2022-10-07T12:51:41.790Z,16.20
2022-10-07T12:54:32.344Z,16.20
2022-10-07T12:57:00.722Z,16.20
2022-10-07T12:59:50.118Z,16.30
2022-10-07T13:02:29.197Z,16.30
2022-10-07T13:05:24.134Z,16.30
2022-10-07T13:07:51.216Z,16.30
2022-10-07T13:10:39.215Z,16.30
2022-10-07T13:13:35.486Z,16.30
2022-10-07T13:16:12.940Z,16.40
2022-10-07T13:18:45.418Z,16.40
2022-10-07T13:21:23.469Z,16.40
2022-10-07T13:23:55.236Z,16.40
2022-10-07T13:26:25.771Z,16.40
2022-10-07T13:28:58.158Z,16.30
2022-10-07T13:31:28.399Z,16.30
2022-10-07T13:33:59.192Z,16.20
2022-10-07T13:36:32.826Z,16.20
2022-10-07T13:39:22.047Z,16.20
2022-10-07T13:41:58.488Z,16.30
2022-10-07T13:44:29.121Z,16.30
2022-10-07T13:47:01.896Z,16.30
2022-10-07T13:49:38.446Z,16.30
2022-10-07T13:52:13.378Z,16.20
2022-10-07T13:54:40.321Z,16.30
2022-10-07T13:57:12.297Z,16.20
2022-10-07T13:59:40.705Z,16.20
2022-10-07T14:02:12.342Z,16.20
2022-10-07T14:04:59.486Z,16.20
2022-10-07T14:07:28.308Z,16.20
2022-10-07T14:10:09.473Z,16.10
2022-10-07T14:12:42.029Z,16.10
2022-10-07T14:15:21.993Z,16.10
2022-10-07T14:17:55.431Z,16.00
2022-10-07T14:20:30.473Z,16.00
2022-10-07T14:23:04.021Z,15.90
2022-10-07T14:25:34.362Z,15.80
2022-10-07T14:28:19.254Z,15.80
2022-10-07T14:31:26.384Z,15.80
2022-10-07T14:34:32.471Z,15.80
2022-10-07T14:37:16.888Z,15.70
2022-10-07T14:39:49.333Z,15.70
2022-10-07T14:42:35.755Z,15.70
2022-10-07T14:45:05.191Z,15.70
2022-10-07T14:47:32.120Z,15.70
2022-10-07T14:50:01.803Z,15.70
2022-10-07T14:52:44.264Z,15.70
2022-10-07T14:55:16.396Z,15.70
2022-10-07T14:57:43.077Z,15.70
2022-10-07T15:00:15.388Z,15.70
2022-10-07T15:02:42.099Z,15.70
2022-10-07T15:05:09.869Z,15.60
2022-10-07T15:07:36.538Z,15.60
2022-10-07T15:10:03.984Z,15.50
2022-10-07T15:12:30.591Z,15.50
2022-10-07T15:14:57.567Z,15.40
2022-10-07T15:17:24.540Z,15.40
2022-10-07T15:19:54.139Z,15.30
2022-10-07T15:22:21.111Z,15.30
2022-10-07T15:24:47.862Z,15.20
2022-10-07T15:27:15.134Z,15.20
2022-10-07T15:29:42.230Z,15.10
2022-10-07T15:32:09.459Z,15.10
2022-10-07T15:34:35.999Z,15.00
2022-10-07T15:37:02.978Z,15.00
2022-10-07T15:39:29.930Z,14.90
2022-10-07T15:41:56.458Z,14.80
2022-10-07T15:44:23.491Z,14.70
2022-10-07T15:46:54.041Z,14.70
2022-10-07T15:49:20.806Z,14.60
2022-10-07T15:51:47.926Z,14.50
2022-10-07T15:54:14.561Z,14.40
2022-10-07T15:56:43.030Z,14.30
2022-10-07T15:59:10.179Z,14.20
2022-10-07T16:01:37.902Z,14.00
2022-10-07T16:04:05.844Z,13.90
2022-10-07T16:06:35.615Z,13.80
2022-10-07T16:09:03.602Z,13.70
2022-10-07T16:11:33.287Z,13.60
2022-10-07T16:14:03.564Z,13.50
2022-10-07T16:16:32.529Z,13.40
2022-10-07T16:19:00.512Z,13.30
2022-10-07T16:21:48.064Z,13.20
2022-10-07T16:24:17.242Z,13.10
2022-10-07T16:26:45.235Z,13.00
2022-10-07T16:29:37.206Z,12.90
2022-10-07T16:32:04.774Z,12.80
2022-10-07T16:34:32.205Z,12.70
2022-10-07T16:36:59.246Z,12.60
2022-10-07T16:39:26.591Z,12.40
2022-10-07T16:41:54.331Z,12.40
2022-10-07T16:44:21.143Z,12.20
2022-10-07T16:46:49.129Z,12.10
2022-10-07T16:49:18.060Z,12.00
2022-10-07T16:51:45.073Z,11.90
2022-10-07T16:54:16.135Z,11.80
2022-10-07T16:56:50.860Z,11.80
2022-10-07T16:59:25.863Z,11.60
2022-10-07T17:01:56.095Z,11.60
2022-10-07T17:04:24.326Z,11.50
2022-10-07T17:06:52.277Z,11.40
2022-10-07T17:09:20.095Z,11.30
2022-10-07T17:11:47.607Z,11.20
2022-10-07T17:14:17.134Z,11.20
2022-10-07T17:16:48.019Z,11.10
2022-10-07T17:19:17.615Z,11.00
2022-10-07T17:21:46.623Z,11.00
2022-10-07T17:24:15.252Z,10.90
2022-10-07T17:26:42.374Z,10.80
2022-10-07T17:29:11.917Z,10.70
2022-10-07T17:31:41.740Z,10.70
2022-10-07T17:34:08.939Z,10.60
2022-10-07T17:36:36.979Z,10.60
2022-10-07T17:39:05.507Z,10.50
2022-10-07T17:41:33.715Z,10.40
2022-10-07T17:44:02.708Z,10.40
2022-10-07T17:46:31.298Z,10.30
2022-10-07T17:49:00.566Z,10.30
2022-10-07T17:51:29.916Z,10.20
2022-10-07T17:54:01.570Z,10.20
2022-10-07T17:56:29.922Z,10.10
2022-10-07T17:58:57.131Z,10.10
2022-10-07T18:01:27.743Z,10.10
2022-10-07T18:03:59.571Z,10.00
2022-10-07T18:06:29.857Z,10.00
2022-10-07T18:08:58.961Z,9.90
2022-10-07T18:11:47.466Z,9.80
2022-10-07T18:14:33.278Z,9.80
2022-10-07T18:17:00.539Z,9.70
2022-10-07T18:19:27.642Z,9.70
2022-10-07T18:21:56.197Z,9.60
2022-10-07T18:24:29.040Z,9.50
2022-10-07T18:26:59.745Z,9.50
2022-10-07T18:29:32.525Z,9.50
2022-10-07T18:32:00.022Z,9.50
2022-10-07T18:34:27.436Z,9.40
2022-10-07T18:36:57.024Z,9.40
2022-10-07T18:39:25.298Z,9.40
2022-10-07T18:41:51.822Z,9.30
2022-10-07T18:44:18.559Z,9.30
2022-10-07T18:46:45.537Z,9.30
2022-10-07T18:49:15.210Z,9.20
2022-10-07T18:51:41.728Z,9.20
2022-10-07T18:54:12.460Z,9.10
2022-10-07T18:56:41.321Z,9.10
2022-10-07T18:59:09.541Z,9.10
2022-10-07T19:01:38.240Z,9.00
2022-10-07T19:04:06.552Z,9.00
2022-10-07T19:06:35.922Z,8.90
2022-10-07T19:09:08.901Z,8.90
2022-10-07T19:11:35.523Z,8.90
2022-10-07T19:14:03.134Z,8.80
2022-10-07T19:16:49.518Z,8.80
2022-10-07T19:19:24.296Z,8.80
2022-10-07T19:21:53.222Z,8.70
2022-10-07T19:24:20.932Z,8.70
2022-10-07T19:26:49.806Z,8.70
2022-10-07T19:29:19.187Z,8.60
2022-10-07T19:31:49.128Z,8.60
2022-10-07T19:34:19.158Z,8.60
2022-10-07T19:36:47.368Z,8.60
2022-10-07T19:39:17.983Z,8.50
2022-10-07T19:41:46.739Z,8.50
2022-10-07T19:44:13.626Z,8.50
2022-10-07T19:46:40.622Z,8.50
2022-10-07T19:49:08.931Z,8.50
2022-10-07T19:51:37.536Z,8.40
2022-10-07T19:54:10.625Z,8.40
2022-10-07T19:56:39.508Z,8.30
2022-10-07T19:59:08.126Z,8.30
2022-10-07T20:01:38.346Z,8.30
2022-10-07T20:04:08.532Z,8.30
2022-10-07T20:06:40.107Z,8.30
2022-10-07T20:09:08.166Z,8.20
2022-10-07T20:11:35.181Z,8.20
2022-10-07T20:14:03.687Z,8.20
2022-10-07T20:16:31.326Z,8.20
2022-10-07T20:19:05.955Z,8.20
2022-10-07T20:21:35.441Z,8.10
2022-10-07T20:24:03.716Z,8.10
2022-10-07T20:26:32.999Z,8.10
2022-10-07T20:29:01.626Z,8.10
2022-10-07T20:31:30.945Z,8.10
2022-10-07T20:33:59.938Z,8.10
2022-10-07T20:36:28.821Z,8.10
2022-10-07T20:39:16.711Z,8.00
2022-10-07T20:42:02.013Z,8.00
2022-10-07T20:44:29.459Z,8.00
2022-10-07T20:46:57.125Z,8.00
2022-10-07T20:49:28.272Z,8.00
2022-10-07T20:52:01.999Z,8.00
2022-10-07T20:54:30.159Z,8.00
2022-10-07T20:56:58.683Z,8.00
2022-10-07T20:59:27.392Z,8.00
2022-10-07T21:01:54.259Z,8.00
2022-10-07T21:04:24.247Z,7.90
2022-10-07T21:06:51.528Z,7.90
2022-10-07T21:09:19.976Z,7.90
2022-10-07T21:11:48.046Z,7.90
2022-10-07T21:14:16.948Z,7.80
2022-10-07T21:16:46.517Z,7.90
2022-10-07T21:19:14.220Z,7.90
2022-10-07T21:21:41.484Z,7.90
2022-10-07T21:24:08.551Z,7.90
2022-10-07T21:26:36.786Z,7.90
2022-10-07T21:29:06.866Z,7.90
2022-10-07T21:31:35.447Z,7.90
2022-10-07T21:34:08.058Z,7.90
2022-10-07T21:36:37.522Z,7.90
2022-10-07T21:39:05.239Z,7.90
2022-10-07T21:41:35.080Z,7.80
2022-10-07T21:44:04.226Z,7.90
2022-10-07T21:46:32.264Z,7.80
2022-10-07T21:48:59.580Z,7.80
2022-10-07T21:51:27.021Z,7.70
2022-10-07T21:53:55.723Z,7.70
2022-10-07T21:56:22.258Z,7.70
2022-10-07T21:58:53.545Z,7.70
2022-10-07T22:01:25.110Z,7.70
2022-10-07T22:04:00.647Z,7.60
2022-10-07T22:06:47.183Z,7.70
2022-10-07T22:09:15.966Z,7.70
2022-10-07T22:11:42.683Z,7.70
2022-10-07T22:14:12.914Z,7.70
2022-10-07T22:16:40.518Z,7.70
2022-10-07T22:19:07.568Z,7.70
2022-10-07T22:21:35.718Z,7.70
2022-10-07T22:24:05.363Z,7.60
2022-10-07T22:26:38.733Z,7.60
2022-10-07T22:29:10.067Z,7.60
2022-10-07T22:31:37.594Z,7.60
2022-10-07T22:34:05.133Z,7.60
2022-10-07T22:36:32.671Z,7.50
2022-10-07T22:39:00.108Z,7.50
2022-10-07T22:41:26.882Z,7.50
2022-10-07T22:43:54.410Z,7.40
2022-10-07T22:46:26.961Z,7.40
2022-10-07T22:48:56.677Z,7.40
2022-10-07T22:51:24.586Z,7.40
2022-10-07T22:53:55.818Z,7.40
2022-10-07T22:56:24.723Z,7.30
2022-10-07T22:58:59.721Z,7.30
2022-10-07T23:01:31.482Z,7.30
2022-10-07T23:04:00.585Z,7.30
2022-10-07T23:06:28.031Z,7.40
2022-10-07T23:08:55.342Z,7.30
2022-10-07T23:11:23.829Z,7.30
2022-10-07T23:13:51.775Z,7.40
2022-10-07T23:16:26.423Z,7.30
2022-10-07T23:18:53.430Z,7.30
2022-10-07T23:21:22.733Z,7.30
2022-10-07T23:23:51.891Z,7.30
2022-10-07T23:26:20.774Z,7.30
2022-10-07T23:28:49.266Z,7.40
2022-10-07T23:31:18.365Z,7.40
2022-10-07T23:33:47.659Z,7.30
2022-10-07T23:36:16.264Z,7.40
2022-10-07T23:38:46.509Z,7.40
2022-10-07T23:41:15.510Z,7.40
2022-10-07T23:43:42.387Z,7.40
2022-10-07T23:46:13.582Z,7.40
2022-10-07T23:48:41.460Z,7.40
2022-10-07T23:51:10.332Z,7.50
2022-10-07T23:53:36.888Z,7.50
2022-10-07T23:56:03.657Z,7.60
2022-10-07T23:58:31.888Z,7.60
